Time;durP1;ratioP1;P1;durP2;ratioP2;P2;SDS_P1;SDS_P2;PMS_P1;PMS_P2;Temp;Humidity;BMP_temperature;BMP_pressure;BME280_temperature;BME280_humidity;BME280_pressure;Samples;Min_cycle;Max_cycle;Signal;HPM_P1;HPM_P2
2023/04/23 00:01:34;;;;;;;456.50;429.60;;;14.20;10.30;;;;;;4995953;28;20471;-70
2023/04/23 00:04:00;;;;;;;366.47;344.80;;;14.20;10.60;;;;;;4995898;28;20176;-71
2023/04/23 00:06:29;;;;;;;454.50;427.37;;;14.10;10.60;;;;;;4995848;28;20466;-70
2023/04/23 00:08:58;;;;;;;330.93;311.47;;;14.10;11.40;;;;;;4995775;28;20454;-70
2023/04/23 00:11:24;;;;;;;386.07;362.33;;;14.00;11.30;;;;;;4995840;28;20455;-70
2023/04/23 00:13:50;;;;;;;300.97;282.33;;;13.90;11.30;;;;;;4995553;28;20458;-72
2023/04/23 00:16:19;;;;;;;399.87;375.47;;;13.80;12.00;;;;;;4995836;28;20181;-71
2023/04/23 00:18:45;;;;;;;360.13;337.80;;;13.90;11.50;;;;;;4995432;28;20458;-69
2023/04/23 00:21:11;;;;;;;391.53;367.70;;;13.80;11.60;;;;;;4995563;28;20424;-70
2023/04/23 00:23:38;;;;;;;413.73;388.63;;;13.70;12.20;;;;;;4995646;28;20185;-70
2023/04/23 00:26:04;;;;;;;384.50;360.43;;;13.70;12.20;;;;;;4996045;28;20408;-72
2023/04/23 00:28:30;;;;;;;426.03;400.40;;;13.60;12.10;;;;;;4995648;28;20426;-72
2023/04/23 00:30:55;;;;;;;687.47;627.63;;;13.70;11.50;;;;;;4995465;28;20419;-72
2023/04/23 00:33:21;;;;;;;171.17;158.43;;;13.70;11.20;;;;;;4977646;28;20184;-71
2023/04/23 00:35:46;;;;;;;437.23;409.10;;;13.60;12.10;;;;;;4994656;28;20707;-71
2023/04/23 00:38:12;;;;;;;399.00;375.00;;;13.60;11.50;;;;;;4977875;28;20571;-72
2023/04/23 00:40:38;;;;;;;248.43;231.20;;;13.60;12.10;;;;;;4995507;28;20216;-71
2023/04/23 00:43:04;;;;;;;365.70;343.10;;;13.70;11.90;;;;;;4995107;28;20191;-71
2023/04/23 00:45:29;;;;;;;348.73;326.90;;;13.70;11.30;;;;;;4995407;28;20482;-72
2023/04/23 00:47:55;;;;;;;313.73;293.47;;;13.70;11.20;;;;;;4995072;28;20267;-72
2023/04/23 00:50:21;;;;;;;339.80;319.53;;;13.60;11.40;;;;;;4995477;28;20359;-72
2023/04/23 00:52:46;;;;;;;299.70;280.80;;;13.70;11.70;;;;;;4994165;28;20275;-71
2023/04/23 00:55:12;;;;;;;489.97;457.67;;;13.70;11.10;;;;;;4977961;28;20188;-71
2023/04/23 00:57:38;;;;;;;265.17;248.07;;;13.70;11.20;;;;;;4977768;28;20184;-72
2023/04/23 01:00:06;;;;;;;538.00;503.07;;;13.70;11.80;;;;;;4995392;28;20696;-71
2023/04/23 01:02:33;;;;;;;394.60;370.77;;;13.70;11.40;;;;;;4995931;28;20427;-72
2023/04/23 01:05:02;;;;;;;228.03;212.03;;;13.70;12.20;;;;;;4996135;28;20785;-69
2023/04/23 01:07:28;;;;;;;785.60;716.90;;;13.70;12.20;;;;;;4996084;28;20427;-72
2023/04/23 01:09:54;;;;;;;345.20;324.47;;;13.60;12.80;;;;;;4995911;28;20442;-70
2023/04/23 01:12:19;;;;;;;295.93;277.50;;;13.60;13.40;;;;;;4995405;28;20262;-71
2023/04/23 01:14:45;;;;;;;477.73;449.00;;;13.60;13.60;;;;;;4995341;28;20841;-71
2023/04/23 01:17:11;;;;;;;431.97;407.07;;;13.60;13.40;;;;;;4994931;28;20187;-71
2023/04/23 01:19:37;;;;;;;301.13;281.80;;;13.50;14.20;;;;;;4994860;28;20216;-71
2023/04/23 01:22:07;;;;;;;367.63;345.03;;;13.50;14.90;;;;;;4994642;28;20257;-72
2023/04/23 01:24:33;;;;;;;334.13;313.00;;;13.50;15.60;;;;;;4977494;28;20415;-71
2023/04/23 01:26:58;;;;;;;439.33;412.87;;;13.40;15.60;;;;;;4994976;28;20410;-71
2023/04/23 01:29:24;;;;;;;324.60;304.60;;;13.40;16.40;;;;;;4994826;28;20590;-71
2023/04/23 01:31:51;;;;;;;369.57;347.43;;;13.30;16.90;;;;;;4994476;28;20207;-72
2023/04/23 01:34:18;;;;;;;488.07;454.43;;;13.30;17.50;;;;;;4994946;28;20435;-71
2023/04/23 01:36:44;;;;;;;339.03;318.13;;;13.20;17.40;;;;;;4977222;28;20426;-71
2023/04/23 01:39:10;;;;;;;468.20;439.07;;;13.20;18.50;;;;;;4994287;28;20484;-71
2023/04/23 01:41:36;;;;;;;259.47;242.73;;;13.10;18.00;;;;;;4994331;28;20414;-71
2023/04/23 01:44:01;;;;;;;225.50;210.97;;;13.10;19.20;;;;;;4994646;28;20426;-71
2023/04/23 01:46:27;;;;;;;346.93;326.00;;;13.00;20.40;;;;;;4994405;28;20767;-71
2023/04/23 01:48:53;;;;;;;538.17;503.87;;;13.10;20.50;;;;;;4976731;28;20204;-71
2023/04/23 01:51:18;;;;;;;243.23;227.10;;;12.90;20.30;;;;;;4995066;28;20184;-71
2023/04/23 01:53:44;;;;;;;544.83;511.13;;;12.90;20.30;;;;;;4994695;28;20196;-71
2023/04/23 01:56:10;;;;;;;422.17;396.97;;;12.90;21.90;;;;;;4994555;28;20531;-72
2023/04/23 01:58:36;;;;;;;303.70;285.17;;;;;;;;;;4976479;28;20206;-72
2023/04/23 02:01:02;;;;;;;187.30;174.37;;;12.90;21.90;;;;;;4994213;28;20418;-69
2023/04/23 02:03:29;;;;;;;361.40;339.63;;;12.90;22.60;;;;;;4976203;28;20428;-72
2023/04/23 02:05:55;;;;;;;305.60;286.07;;;12.80;22.00;;;;;;4994038;28;20652;-72
2023/04/23 02:08:21;;;;;;;497.93;466.27;;;12.80;22.70;;;;;;4993829;28;20514;-72
2023/04/23 02:10:46;;;;;;;345.60;324.40;;;12.70;23.20;;;;;;4993819;28;20600;-72
2023/04/23 02:13:12;;;;;;;351.33;330.33;;;12.70;23.70;;;;;;4976144;28;20425;-72
2023/04/23 02:15:39;;;;;;;379.60;358.23;;;12.70;24.10;;;;;;4993569;28;20187;-71
2023/04/23 02:18:05;;;;;;;316.70;297.03;;;12.80;24.20;;;;;;4993469;28;20196;-72
2023/04/23 02:20:31;;;;;;;316.63;298.10;;;12.80;24.60;;;;;;4975829;28;20518;-72
2023/04/23 02:22:56;;;;;;;318.23;299.87;;;12.80;24.50;;;;;;4993346;28;20445;-69
2023/04/23 02:25:22;;;;;;;308.37;289.80;;;12.80;24.50;;;;;;4993501;28;20644;-71
2023/04/23 02:27:48;;;;;;;237.13;221.90;;;12.70;24.70;;;;;;4993421;28;20242;-72
2023/04/23 02:30:14;;;;;;;240.07;224.83;;;12.70;25.10;;;;;;4975901;28;20208;-72
2023/04/23 02:32:41;;;;;;;227.13;211.80;;;12.60;26.30;;;;;;4993113;28;20185;-69
2023/04/23 02:35:08;;;;;;;362.13;341.20;;;12.60;26.60;;;;;;4975919;28;20434;-72
2023/04/23 02:37:34;;;;;;;237.27;221.87;;;12.50;26.80;;;;;;4993178;28;20426;-69
2023/04/23 02:40:00;;;;;;;292.73;274.87;;;12.60;26.80;;;;;;4992835;28;20522;-69
2023/04/23 02:42:26;;;;;;;285.70;267.83;;;12.70;26.60;;;;;;4992843;28;20501;-69
2023/04/23 02:44:51;;;;;;;368.20;347.40;;;12.60;27.30;;;;;;4993245;28;20509;-71
2023/04/23 02:47:17;;;;;;;401.03;379.47;;;12.50;28.20;;;;;;4993134;28;20255;-72
2023/04/23 02:49:43;;;;;;;341.77;320.03;;;12.60;27.70;;;;;;4993104;28;20195;-72
2023/04/23 02:52:09;;;;;;;302.43;284.90;;;12.60;27.50;;;;;;4992684;28;20418;-72
2023/04/23 02:54:38;;;;;;;307.63;289.73;;;12.60;28.20;;;;;;4993041;28;20554;-71
2023/04/23 02:57:04;;;;;;;338.83;319.30;;;12.60;27.70;;;;;;4975356;28;20522;-71
2023/04/23 02:59:30;;;;;;;368.57;348.27;;;12.50;27.70;;;;;;4992222;28;20532;-71
2023/04/23 03:01:55;;;;;;;279.37;262.40;;;12.50;28.40;;;;;;4992646;28;20820;-71
2023/04/23 03:04:21;;;;;;;234.27;219.03;;;12.50;28.90;;;;;;4992757;28;20278;-71
2023/04/23 03:06:47;;;;;;;266.10;249.33;;;12.60;28.50;;;;;;4992842;28;20180;-71
2023/04/23 03:09:12;;;;;;;355.40;335.97;;;12.50;28.50;;;;;;4992882;28;20205;-71
2023/04/23 03:11:38;;;;;;;340.20;319.73;;;12.50;28.90;;;;;;4992500;28;20185;-71
2023/04/23 03:14:03;;;;;;;372.00;351.00;;;12.50;29.70;;;;;;4992898;28;20599;-71
2023/04/23 03:16:30;;;;;;;226.77;211.67;;;12.40;30.00;;;;;;4992635;28;20239;-70
2023/04/23 03:18:57;;;;;;;262.73;246.50;;;12.30;31.60;;;;;;4992474;28;20569;-71
2023/04/23 03:21:22;;;;;;;215.20;200.77;;;12.20;32.90;;;;;;4992490;28;20941;-71
2023/04/23 03:23:48;;;;;;;263.23;246.83;;;12.30;33.00;;;;;;4992473;28;20563;-71
2023/04/23 03:26:14;;;;;;;346.37;327.60;;;12.30;33.00;;;;;;4992474;28;20184;-71
2023/04/23 03:28:39;;;;;;;255.37;238.13;;;12.30;32.40;;;;;;4992470;28;20204;-71
2023/04/23 03:31:05;;;;;;;293.93;276.47;;;12.20;30.00;;;;;;4992523;28;20173;-71
2023/04/23 03:33:30;;;;;;;223.10;208.07;;;12.20;30.90;;;;;;4992086;28;20180;-71
2023/04/23 03:35:56;;;;;;;275.10;258.47;;;12.30;31.60;;;;;;4992448;28;20639;-71
2023/04/23 03:38:21;;;;;;;241.10;225.43;;;12.30;32.10;;;;;;4992285;28;20201;-71
2023/04/23 03:40:47;;;;;;;257.67;241.37;;;12.30;32.50;;;;;;4992364;28;20308;-71
2023/04/23 03:43:12;;;;;;;286.67;269.50;;;12.30;33.00;;;;;;4992168;28;20709;-71
2023/04/23 03:45:38;;;;;;;270.10;253.47;;;12.30;33.00;;;;;;4974904;28;20261;-71
2023/04/23 03:48:03;;;;;;;390.27;369.40;;;12.30;33.00;;;;;;4974767;28;20192;-70
2023/04/23 03:50:30;;;;;;;326.93;308.30;;;12.20;32.50;;;;;;4992330;28;20216;-71
2023/04/23 03:52:56;;;;;;;245.37;229.90;;;12.20;33.30;;;;;;4992153;28;20184;-71
2023/04/23 03:55:21;;;;;;;282.10;265.40;;;12.20;33.80;;;;;;4992236;28;20413;-71
2023/04/23 03:57:47;;;;;;;358.07;338.37;;;12.20;33.70;;;;;;4992217;28;20178;-70
2023/04/23 04:00:13;;;;;;;327.57;308.43;;;12.20;33.60;;;;;;4992142;28;20582;-70
2023/04/23 04:02:39;;;;;;;264.20;247.67;;;12.20;34.40;;;;;;4974445;28;20185;-71
2023/04/23 04:05:05;;;;;;;338.60;318.87;;;12.10;34.90;;;;;;4992300;28;20413;-71
2023/04/23 04:07:32;;;;;;;295.37;277.37;;;12.10;34.90;;;;;;4992155;28;20789;-70
2023/04/23 04:09:58;;;;;;;417.63;394.93;;;12.10;35.80;;;;;;4974795;28;20455;-70
2023/04/23 04:12:23;;;;;;;252.67;236.53;;;12.00;36.30;;;;;;4995714;28;20427;-71
2023/04/23 04:14:49;;;;;;;337.20;317.30;;;12.00;37.00;;;;;;4995926;28;20646;-70
2023/04/23 04:17:15;;;;;;;280.07;262.30;;;12.00;37.00;;;;;;4995865;28;20193;-70
2023/04/23 04:19:41;;;;;;;295.50;276.87;;;12.00;37.90;;;;;;4995547;28;20222;-71
2023/04/23 04:22:08;;;;;;;245.03;229.10;;;11.90;38.90;;;;;;4995532;28;20208;-71
2023/04/23 04:24:34;;;;;;;351.37;329.47;;;11.90;39.40;;;;;;4995502;28;20462;-71
2023/04/23 04:27:00;;;;;;;365.83;344.63;;;12.00;39.90;;;;;;4995651;28;20419;-71
2023/04/23 04:29:26;;;;;;;364.70;344.57;;;12.00;39.20;;;;;;4995510;28;20440;-71
2023/04/23 04:31:53;;;;;;;302.23;283.73;;;12.00;38.00;;;;;;4995264;28;20426;-71
2023/04/23 04:34:19;;;;;;;311.17;291.80;;;12.00;37.90;;;;;;4995581;28;20208;-71
2023/04/23 04:36:45;;;;;;;305.20;286.60;;;11.90;37.10;;;;;;4995488;28;21170;-71
2023/04/23 04:39:12;;;;;;;260.37;244.17;;;11.80;37.80;;;;;;5029513;22;20223;-71
2023/04/23 04:41:38;;;;;;;246.17;230.07;;;11.80;38.20;;;;;;5034457;28;20414;-71
2023/04/23 04:44:03;;;;;;;274.43;255.47;;;11.90;38.70;;;;;;5034750;28;20418;-71
2023/04/23 04:46:30;;;;;;;185.20;171.90;;;11.90;38.10;;;;;;5034854;28;20209;-71
2023/04/23 04:48:56;;;;;;;286.80;267.77;;;11.90;38.60;;;;;;5034506;28;20210;-71
2023/04/23 04:51:21;;;;;;;343.93;323.80;;;12.00;37.90;;;;;;5034440;28;20410;-71
2023/04/23 04:53:47;;;;;;;248.50;231.60;;;12.00;37.90;;;;;;5034277;28;20391;-71
2023/04/23 04:56:12;;;;;;;405.10;383.07;;;11.90;38.70;;;;;;5034700;28;20261;-72
2023/04/23 04:58:38;;;;;;;319.50;300.67;;;12.00;38.80;;;;;;5034206;28;20204;-71
2023/04/23 05:01:04;;;;;;;308.67;289.67;;;12.00;39.00;;;;;;5034322;28;20184;-71
2023/04/23 05:03:30;;;;;;;355.67;334.17;;;12.00;37.90;;;;;;5034201;28;20176;-71
2023/04/23 05:05:57;;;;;;;207.80;194.10;;;12.00;37.90;;;;;;5034332;28;20785;-68
2023/04/23 05:08:23;;;;;;;190.83;177.37;;;11.90;38.70;;;;;;5034288;28;20469;-69
2023/04/23 05:10:49;;;;;;;393.20;371.33;;;12.00;37.40;;;;;;5034349;28;20410;-69
2023/04/23 05:13:16;;;;;;;400.90;378.17;;;12.00;37.90;;;;;;5033962;28;20418;-69
2023/04/23 05:15:41;;;;;;;348.43;328.33;;;12.00;38.00;;;;;;5034093;28;20445;-69
2023/04/23 05:18:09;;;;;;;255.17;238.77;;;12.00;37.90;;;;;;5034211;28;20449;-69
2023/04/23 05:20:35;;;;;;;222.10;206.97;;;12.20;36.90;;;;;;5032734;28;20211;-70
2023/04/23 05:23:01;;;;;;;300.90;282.03;;;12.10;35.80;;;;;;5036940;28;20413;-69
2023/04/23 05:25:28;;;;;;;226.97;211.70;;;12.20;34.40;;;;;;5042502;28;20165;-71
2023/04/23 05:27:54;;;;;;;235.10;219.40;;;12.20;34.30;;;;;;5038732;28;20690;-73
2023/04/23 05:30:20;;;;;;;365.23;343.97;;;12.20;34.80;;;;;;5034538;28;20822;-71
2023/04/23 05:32:46;;;;;;;237.77;221.03;;;12.20;34.40;;;;;;5033862;28;20544;-70
2023/04/23 05:35:11;;;;;;;339.70;319.97;;;12.20;34.90;;;;;;5034497;28;20519;-70
2023/04/23 05:37:37;;;;;;;404.13;381.20;;;12.20;34.70;;;;;;5035022;28;20187;-70
2023/04/23 05:40:05;;;;;;;229.00;213.57;;;12.20;34.50;;;;;;5039868;28;20211;-70
2023/04/23 05:42:31;;;;;;;364.40;343.43;;;12.30;34.90;;;;;;5043015;28;20172;-70
2023/04/23 05:44:56;;;;;;;235.23;219.47;;;12.40;34.40;;;;;;5043788;28;20472;-72
2023/04/23 05:47:22;;;;;;;305.90;287.10;;;12.40;33.10;;;;;;5028518;28;20433;-70
2023/04/23 05:49:48;;;;;;;277.23;258.00;;;12.50;33.10;;;;;;5031146;28;20579;-69
2023/04/23 05:52:17;;;;;;;281.37;263.63;;;12.60;31.50;;;;;;5025209;28;20191;-71
2023/04/23 05:54:43;;;;;;;308.33;288.97;;;12.70;30.80;;;;;;5032252;28;20282;-71
2023/04/23 05:57:09;;;;;;;202.53;187.53;;;12.70;31.20;;;;;;5034700;28;20472;-71
2023/04/23 05:59:35;;;;;;;133.60;122.43;;;12.70;30.50;;;;;;5033523;28;20234;-69
2023/04/23 06:02:04;;;;;;;157.07;144.80;;;12.80;31.20;;;;;;5033310;28;20434;-70
2023/04/23 06:04:33;;;;;;;193.07;178.13;;;13.00;30.20;;;;;;5026818;28;20187;-71
2023/04/23 06:06:59;;;;;;;350.80;330.47;;;13.20;29.60;;;;;;5013255;28;20427;-71
2023/04/23 06:09:27;;;;;;;392.03;367.30;;;13.40;28.10;;;;;;5013879;28;20434;-73
2023/04/23 06:11:56;;;;;;;179.13;164.57;;;13.50;25.50;;;;;;5023527;28;20754;-72
2023/04/23 06:14:21;;;;;;;167.47;153.83;;;13.50;25.00;;;;;;5034870;28;20415;-71
2023/04/23 06:16:50;;;;;;;181.03;167.00;;;13.80;25.20;;;;;;5033920;28;20417;-72
2023/04/23 06:19:15;;;;;;;346.90;325.27;;;14.80;21.60;;;;;;5032981;28;20698;-71
2023/04/23 06:21:41;;;;;;;324.23;302.17;;;15.00;18.20;;;;;;5032654;28;20417;-73
2023/04/23 06:24:09;;;;;;;294.80;275.17;;;15.10;17.80;;;;;;5032945;28;20264;-72
2023/04/23 06:26:35;;;;;;;246.97;229.50;;;16.00;17.30;;;;;;5032719;28;20171;-72
2023/04/23 06:29:01;;;;;;;236.53;220.00;;;16.70;14.30;;;;;;5032269;28;20437;-71
2023/04/23 06:31:30;;;;;;;377.83;354.10;;;17.30;11.70;;;;;;5032539;28;20171;-71
2023/04/23 06:33:55;;;;;;;212.73;198.97;;;17.70;11.50;;;;;;5029326;28;20197;-71
2023/04/23 06:36:21;;;;;;;344.60;322.37;;;18.00;10.60;;;;;;5012768;28;20494;-70
2023/04/23 06:38:46;;;;;;;292.70;273.23;;;18.30;9.00;;;;;;5012528;28;20631;-72
2023/04/23 06:41:12;;;;;;;371.30;347.93;;;19.40;7.20;;;;;;5012625;28;20176;-70
2023/04/23 06:43:38;;;;;;;335.17;314.90;;;21.70;4.20;;;;;;5012363;28;20172;-73
2023/04/23 06:46:03;;;;;;;390.50;366.87;;;21.90;2.10;;;;;;5013213;28;20172;-70
2023/04/23 06:48:36;;;;;;;474.60;444.93;;;22.30;1.00;;;;;;5022894;28;20438;-71
2023/04/23 06:51:02;;;;;;;477.90;447.97;;;22.50;1.00;;;;;;5032408;28;20182;-69
2023/04/23 06:53:27;;;;;;;495.20;464.60;;;24.20;1.00;;;;;;5032033;28;20413;-70
2023/04/23 06:55:53;;;;;;;386.63;363.03;;;25.30;1.00;;;;;;5032093;28;20183;-69
2023/04/23 06:58:19;;;;;;;410.20;386.03;;;24.70;1.00;;;;;;5032002;28;20205;-70
2023/04/23 07:00:45;;;;;;;511.53;477.80;;;;;;;;;;5031815;28;20229;-70
2023/04/23 07:03:11;;;;;;;416.63;390.37;;;24.50;1.00;;;;;;5031796;28;20509;-70
2023/04/23 07:05:36;;;;;;;454.57;424.87;;;22.70;1.00;;;;;;5031778;28;20426;-69
2023/04/23 07:08:02;;;;;;;386.90;361.97;;;21.90;1.00;;;;;;5024962;28;20187;-69
2023/04/23 07:10:28;;;;;;;497.67;465.07;;;;;;;;;;5028074;28;20233;-71
2023/04/23 07:12:53;;;;;;;357.97;333.27;;;20.90;1.00;;;;;;5027919;28;20210;-69
2023/04/23 07:15:19;;;;;;;298.20;279.20;;;20.10;1.00;;;;;;5027567;28;20445;-70
2023/04/23 07:17:45;;;;;;;341.70;318.07;;;20.80;1.00;;;;;;5028123;28;20229;-72
2023/04/23 07:20:11;;;;;;;356.67;333.53;;;22.60;1.00;;;;;;5027908;28;20496;-70
2023/04/23 07:22:40;;;;;;;382.30;357.83;;;24.70;1.00;;;;;;5027494;28;20186;-71
2023/04/23 07:25:07;;;;;;;357.03;334.20;;;26.60;1.00;;;;;;5026584;28;20949;-72
2023/04/23 07:27:33;;;;;;;480.03;450.03;;;27.50;1.00;;;;;;5028142;28;20433;-71
2023/04/23 07:30:00;;;;;;;522.20;490.70;;;26.00;1.00;;;;;;5027412;28;20818;-71
2023/04/23 07:32:26;;;;;;;490.23;459.83;;;27.20;1.00;;;;;;5027787;28;20993;-72
2023/04/23 07:34:53;;;;;;;533.20;499.40;;;25.90;1.00;;;;;;5028254;28;20521;-71
2023/04/23 07:37:20;;;;;;;455.27;426.93;;;25.10;1.00;;;;;;5027555;28;20509;-70
2023/04/23 07:39:46;;;;;;;531.83;498.30;;;24.80;1.00;;;;;;5027403;28;20548;-70
2023/04/23 07:42:12;;;;;;;581.07;543.90;;;23.90;1.00;;;;;;5027997;28;21010;-70
2023/04/23 07:44:37;;;;;;;487.57;456.47;;;22.30;1.00;;;;;;5028705;28;20187;-70
2023/04/23 07:47:03;;;;;;;499.30;465.87;;;20.30;1.00;;;;;;5027995;28;20437;-71
2023/04/23 07:49:29;;;;;;;475.43;445.87;;;20.10;1.00;;;;;;5031945;28;20207;-70
2023/04/23 07:51:55;;;;;;;389.70;364.07;;;19.90;1.00;;;;;;5031081;28;20249;-71
2023/04/23 07:54:21;;;;;;;413.50;387.50;;;19.90;1.00;;;;;;5031441;28;20846;-71
2023/04/23 07:56:46;;;;;;;385.10;360.73;;;20.10;1.00;;;;;;5031621;28;20482;-70
2023/04/23 07:59:12;;;;;;;336.43;313.57;;;20.10;1.00;;;;;;5030722;28;20269;-70
2023/04/23 08:01:38;;;;;;;549.50;512.97;;;21.10;1.00;;;;;;5031769;28;20645;-71
2023/04/23 08:04:03;;;;;;;427.20;400.30;;;21.80;1.00;;;;;;5031555;28;20262;-69
2023/04/23 08:06:33;;;;;;;401.67;376.80;;;23.20;1.00;;;;;;5030818;28;20175;-71
2023/04/23 08:08:59;;;;;;;377.53;355.10;;;24.70;1.00;;;;;;5031282;28;20206;-71
2023/04/23 08:11:28;;;;;;;515.57;482.97;;;;;;;;;;5031396;28;20426;-73
2023/04/23 08:13:54;;;;;;;555.50;521.53;;;;;;;;;;5035201;28;20175;-76
2023/04/23 08:16:20;;;;;;;525.37;493.20;;;;;;;;;;5035553;28;20418;-70
2023/04/23 08:18:46;;;;;;;549.07;512.20;;;;;;;;;;5035001;28;20433;-72
2023/04/23 08:21:12;;;;;;;499.50;468.63;;;27.70;1.00;;;;;;5034868;28;20442;-70
2023/04/23 08:23:38;;;;;;;485.07;455.47;;;25.10;1.00;;;;;;5028562;28;20513;-69
2023/04/23 08:26:03;;;;;;;519.93;488.30;;;23.60;1.00;;;;;;5025541;28;20427;-71
2023/04/23 08:28:29;;;;;;;545.50;511.53;;;22.60;1.00;;;;;;5015147;28;20281;-70
2023/04/23 08:30:55;;;;;;;468.77;439.70;;;22.20;1.00;;;;;;5015222;28;20694;-70
2023/04/23 08:33:21;;;;;;;473.57;443.90;;;21.90;1.00;;;;;;5031243;28;20440;-70
2023/04/23 08:35:47;;;;;;;518.00;484.80;;;21.10;1.00;;;;;;5034765;28;20656;-73
2023/04/23 08:38:12;;;;;;;471.90;441.93;;;20.60;1.00;;;;;;5034807;28;20434;-71
2023/04/23 08:40:41;;;;;;;458.27;429.47;;;20.20;1.00;;;;;;5035187;28;20586;-70
2023/04/23 08:43:17;;;;;;;458.43;430.10;;;19.00;1.00;;;;;;5034651;28;20222;-70
2023/04/23 08:45:46;;;;;;;375.33;351.50;;;19.20;1.00;;;;;;5034938;28;20422;-70
2023/04/23 08:48:13;;;;;;;453.17;424.67;;;19.60;1.00;;;;;;5034701;28;20457;-70
2023/04/23 08:50:42;;;;;;;379.70;355.93;;;19.90;1.00;;;;;;5034867;28;20421;-71
2023/04/23 08:53:09;;;;;;;440.47;412.93;;;20.70;1.00;;;;;;5034173;28;20426;-70
2023/04/23 08:55:35;;;;;;;433.70;407.87;;;21.50;1.00;;;;;;5034018;28;20480;-70
2023/04/23 08:58:03;;;;;;;459.67;430.37;;;21.50;1.00;;;;;;5032855;28;20425;-71
2023/04/23 09:00:29;;;;;;;451.77;423.83;;;21.10;1.00;;;;;;5034496;28;20458;-72
2023/04/23 09:02:55;;;;;;;440.07;413.20;;;21.00;1.00;;;;;;5033946;28;20453;-71
2023/04/23 09:05:21;;;;;;;498.87;467.57;;;20.70;1.00;;;;;;5034248;28;20218;-70
2023/04/23 09:07:46;;;;;;;445.53;416.93;;;20.40;1.00;;;;;;5034225;28;20449;-69
2023/04/23 09:10:13;;;;;;;471.43;440.20;;;20.80;1.00;;;;;;5034746;28;20210;-71
2023/04/23 09:12:41;;;;;;;490.53;459.90;;;21.00;1.00;;;;;;5033813;28;20636;-71
2023/04/23 09:15:10;;;;;;;488.97;457.90;;;20.80;1.00;;;;;;5034269;28;20467;-71
2023/04/23 09:17:42;;;;;;;486.40;455.40;;;20.80;1.00;;;;;;5033894;28;20438;-72
2023/04/23 09:20:09;;;;;;;475.07;445.50;;;20.30;1.00;;;;;;5033868;28;20468;-71
2023/04/23 09:22:51;;;;;;;502.00;470.33;;;20.70;1.00;;;;;;5033614;28;20426;-70
2023/04/23 09:25:22;;;;;;;454.80;425.10;;;21.00;1.00;;;;;;5034082;28;20577;-70
2023/04/23 09:27:50;;;;;;;489.17;456.90;;;20.40;1.00;;;;;;5034132;28;20469;-70
2023/04/23 09:30:16;;;;;;;482.83;450.57;;;20.40;1.00;;;;;;5034131;28;20496;-70
2023/04/23 09:32:44;;;;;;;406.93;382.70;;;19.80;1.00;;;;;;5033638;28;20430;-71
2023/04/23 09:35:15;;;;;;;501.87;468.30;;;19.70;1.00;;;;;;5034014;28;20425;-71
2023/04/23 09:37:42;;;;;;;467.07;437.37;;;19.80;1.00;;;;;;5034373;28;20421;-70
2023/04/23 09:40:08;;;;;;;502.20;468.20;;;19.70;1.00;;;;;;5033226;28;20470;-70
2023/04/23 09:42:35;;;;;;;479.40;448.37;;;19.40;1.00;;;;;;5033178;28;20422;-71
2023/04/23 09:45:06;;;;;;;494.30;462.33;;;19.30;1.00;;;;;;5033478;28;20420;-71
2023/04/23 09:47:38;;;;;;;387.77;362.43;;;19.40;1.00;;;;;;5033484;28;20509;-72
2023/04/23 09:50:04;;;;;;;417.40;391.43;;;19.80;1.00;;;;;;5031731;28;20519;-70
2023/04/23 09:52:31;;;;;;;438.20;410.93;;;20.00;1.00;;;;;;5033052;28;20442;-70
2023/04/23 09:55:00;;;;;;;436.57;410.10;;;19.80;1.00;;;;;;5033570;28;20441;-70
2023/04/23 09:57:26;;;;;;;460.77;432.40;;;20.00;1.00;;;;;;5032057;28;20426;-70
2023/04/23 09:59:51;;;;;;;491.43;460.33;;;20.10;1.00;;;;;;5033148;28;20468;-71
2023/04/23 10:02:17;;;;;;;439.27;413.03;;;20.10;1.00;;;;;;5035951;28;20177;-72
2023/04/23 10:04:48;;;;;;;404.40;379.67;;;19.90;1.00;;;;;;5036893;28;20235;-72
2023/04/23 10:07:15;;;;;;;410.33;384.80;;;20.20;1.00;;;;;;5035011;28;20434;-71
2023/04/23 10:09:41;;;;;;;450.57;422.07;;;20.50;1.00;;;;;;5034897;28;20572;-70
2023/04/23 10:12:08;;;;;;;448.60;419.30;;;20.60;1.00;;;;;;5036462;28;20460;-70
2023/04/23 10:14:34;;;;;;;466.53;437.23;;;20.20;1.00;;;;;;5036736;28;20597;-72
2023/04/23 10:17:02;;;;;;;462.60;433.90;;;20.30;1.00;;;;;;5036334;28;20444;-71
2023/04/23 10:19:28;;;;;;;463.97;433.80;;;20.10;1.00;;;;;;5034988;28;20461;-71
2023/04/23 10:21:59;;;;;;;443.47;414.67;;;20.30;1.00;;;;;;5034470;28;20787;-70
2023/04/23 10:24:29;;;;;;;488.90;457.60;;;20.50;1.00;;;;;;5034611;28;20857;-69
2023/04/23 10:27:01;;;;;;;437.37;409.77;;;20.10;1.00;;;;;;5034717;28;20417;-70
2023/04/23 10:29:30;;;;;;;444.13;414.90;;;19.90;1.00;;;;;;5034757;28;20445;-71
2023/04/23 10:32:00;;;;;;;437.23;410.27;;;20.10;1.00;;;;;;5034813;28;20495;-70
2023/04/23 10:34:27;;;;;;;431.40;404.73;;;20.40;1.00;;;;;;5035364;28;20462;-71
2023/04/23 10:36:54;;;;;;;391.87;367.60;;;20.30;1.00;;;;;;5037283;28;20413;-70
2023/04/23 10:39:21;;;;;;;602.30;559.97;;;20.10;1.00;;;;;;5036664;28;20553;-70
2023/04/23 10:41:47;;;;;;;486.03;454.63;;;19.90;1.00;;;;;;5036463;28;20414;-71
2023/04/23 10:44:15;;;;;;;444.23;414.63;;;20.00;1.00;;;;;;5035927;28;20410;-72
2023/04/23 10:46:53;;;;;;;424.63;397.73;;;20.30;1.00;;;;;;5035937;28;20907;-71
2023/04/23 10:49:21;;;;;;;420.43;395.00;;;20.40;1.00;;;;;;5035225;28;20922;-71
2023/04/23 10:51:46;;;;;;;449.87;421.37;;;20.40;1.00;;;;;;5035325;28;20462;-70
2023/04/23 10:54:18;;;;;;;464.60;434.50;;;20.50;1.00;;;;;;5035745;28;20457;-71
2023/04/23 10:56:43;;;;;;;450.40;422.57;;;20.40;1.00;;;;;;5035784;28;20274;-70
2023/04/23 10:59:20;;;;;;;533.17;498.37;;;20.60;1.00;;;;;;5035589;28;20561;-71
2023/04/23 11:01:47;;;;;;;489.30;457.53;;;20.90;1.00;;;;;;5035609;28;20175;-70
2023/04/23 11:04:21;;;;;;;456.40;427.80;;;20.90;1.00;;;;;;5036388;28;20412;-70
2023/04/23 11:06:47;;;;;;;422.30;395.87;;;20.90;1.00;;;;;;5036065;28;20414;-70
2023/04/23 11:09:35;;;;;;;467.90;438.20;;;21.30;1.00;;;;;;5035526;28;20441;-69
2023/04/23 11:12:02;;;;;;;412.77;387.43;;;21.30;1.00;;;;;;5035034;28;20194;-70
2023/04/23 11:14:35;;;;;;;520.23;487.67;;;21.60;1.00;;;;;;5035403;28;20438;-71
2023/04/23 11:17:05;;;;;;;478.87;447.93;;;22.20;1.00;;;;;;5034620;28;20426;-70
2023/04/23 11:19:36;;;;;;;430.63;403.90;;;21.90;1.00;;;;;;5034755;28;20468;-70
2023/04/23 11:22:12;;;;;;;438.90;412.00;;;22.20;1.00;;;;;;5034949;28;20402;-70
2023/04/23 11:24:41;;;;;;;508.43;476.10;;;22.10;1.00;;;;;;5036145;28;20500;-71
2023/04/23 11:27:09;;;;;;;541.53;507.97;;;21.80;1.00;;;;;;5035711;28;20514;-73
2023/04/23 11:29:36;;;;;;;467.93;437.63;;;21.70;1.00;;;;;;5035079;28;20453;-71
2023/04/23 11:32:02;;;;;;;483.30;453.10;;;22.00;1.00;;;;;;5035800;28;20414;-70
2023/04/23 11:34:27;;;;;;;453.33;425.60;;;22.10;1.00;;;;;;5035110;28;20443;-69
2023/04/23 11:36:55;;;;;;;420.70;394.17;;;22.40;1.00;;;;;;5034625;28;20270;-70
2023/04/23 11:39:23;;;;;;;492.90;462.83;;;22.20;1.00;;;;;;5035460;28;20465;-69
2023/04/23 11:41:49;;;;;;;376.70;354.87;;;22.10;1.00;;;;;;5035734;28;20595;-72
2023/04/23 11:44:18;;;;;;;471.40;441.77;;;22.40;1.00;;;;;;5035072;28;20977;-69
2023/04/23 11:46:48;;;;;;;454.60;425.93;;;23.20;1.00;;;;;;5036176;28;20433;-70
2023/04/23 11:49:15;;;;;;;532.97;497.90;;;23.20;1.00;;;;;;5036075;28;20444;-71
2023/04/23 11:51:45;;;;;;;415.47;389.03;;;;;;;;;;5036314;28;20426;-71
2023/04/23 11:54:12;;;;;;;467.30;438.37;;;;;;;;;;5036116;28;20398;-71
2023/04/23 11:56:38;;;;;;;520.00;485.57;;;22.90;1.00;;;;;;5034535;28;20756;-71
2023/04/23 11:59:05;;;;;;;452.33;423.53;;;22.80;1.00;;;;;;5036026;28;20479;-71
2023/04/23 12:01:49;;;;;;;469.50;439.70;;;22.80;1.00;;;;;;5035962;28;20504;-70
2023/04/23 12:04:23;;;;;;;483.60;452.20;;;22.80;1.00;;;;;;5036260;28;20441;-71
2023/04/23 12:06:50;;;;;;;495.73;463.77;;;23.00;1.00;;;;;;5026321;28;20435;-69
2023/04/23 12:09:17;;;;;;;549.23;513.23;;;22.70;1.00;;;;;;5019064;28;20495;-69
2023/04/23 12:11:44;;;;;;;510.67;478.27;;;22.50;1.00;;;;;;5031775;28;20504;-72
2023/04/23 12:14:11;;;;;;;434.60;407.53;;;22.30;1.00;;;;;;5016645;28;20421;-70